Time;durP1;ratioP1;P1;durP2;ratioP2;P2;SDS_P1;SDS_P2;PMS_P1;PMS_P2;Temp;Humidity;BMP_temperature;BMP_pressure;BME280_temperature;BME280_humidity;BME280_pressure;Samples;Min_cycle;Max_cycle;Signal;HPM_P1;HPM_P2
2023/09/09 00:00:39;;;;;;;35.17;31.50;;;;;;;25.12;51.35;97516.22;5036674;28;20184;-70
2023/09/09 00:03:04;;;;;;;31.77;28.37;;;;;;;25.09;50.83;97516.69;5031221;28;20211;-70
2023/09/09 00:05:30;;;;;;;30.93;27.73;;;;;;;25.05;51.02;97510.19;5028743;28;20699;-70
2023/09/09 00:07:55;;;;;;;15.10;13.60;;;;;;;25.03;51.32;97509.63;5029202;28;20785;-68
2023/09/09 00:10:21;;;;;;;31.43;28.03;;;;;;;24.97;51.06;97516.75;5010857;28;20188;-70
2023/09/09 00:12:46;;;;;;;30.83;26.77;;;;;;;24.91;51.28;97515.00;5011923;28;20198;-69
2023/09/09 00:15:12;;;;;;;14.20;11.93;;;;;;;24.88;51.58;97510.94;5040872;28;20305;-69
2023/09/09 00:17:37;;;;;;;15.80;11.73;;;;;;;24.85;51.54;97506.03;5030317;28;20184;-69
2023/09/09 00:20:06;;;;;;;11.00;9.90;;;;;;;24.82;51.49;97518.06;5041834;28;20183;-70
2023/09/09 00:22:32;;;;;;;12.80;9.47;;;;;;;24.78;51.64;97510.75;5032928;28;20212;-68
2023/09/09 00:24:57;;;;;;;11.57;10.37;;;;;;;24.74;51.79;97509.56;5032684;28;20495;-68
2023/09/09 00:27:23;;;;;;;12.67;10.30;;;;;;;24.74;51.71;97510.41;5032904;28;20739;-70
2023/09/09 00:29:48;;;;;;;11.60;10.00;;;;;;;24.72;51.80;97511.66;5040324;28;20567;-70
2023/09/09 00:32:14;;;;;;;10.93;9.83;;;;;;;24.69;51.83;97508.44;5032954;28;20267;-71
2023/09/09 00:34:40;;;;;;;10.97;9.33;;;;;;;24.68;52.25;97501.41;5031988;28;20219;-72
2023/09/09 00:37:05;;;;;;;10.90;9.70;;;;;;;24.65;52.03;97509.09;5033073;28;20454;-70
2023/09/09 00:39:31;;;;;;;9.70;8.60;;;;;;;24.67;52.34;97504.31;5039772;28;20276;-70
2023/09/09 00:41:56;;;;;;;10.73;9.63;;;;;;;24.66;52.29;97508.03;5037050;28;20229;-71
2023/09/09 00:44:21;;;;;;;10.17;8.80;;;;;;;24.66;52.29;97508.03;5016745;28;20188;-70
2023/09/09 00:46:47;;;;;;;10.07;9.07;;;;;;;24.64;51.94;97507.47;5032979;28;20345;-69
2023/09/09 00:49:13;;;;;;;8.20;7.40;;;;;;;24.62;52.36;97506.91;5014886;28;20269;-69
2023/09/09 00:51:38;;;;;;;9.27;8.33;;;;;;;24.60;52.20;97509.00;5034494;28;20184;-69
2023/09/09 00:54:04;;;;;;;10.03;8.97;;;;;;;24.62;52.16;97504.22;5032552;28;20818;-70
2023/09/09 00:56:32;;;;;;;10.77;8.90;;;;;;;24.57;52.23;97499.56;5030932;28;20290;-70
2023/09/09 00:58:58;;;;;;;8.93;7.90;;;;;;;24.56;52.17;97508.66;5032684;28;20563;-69
2023/09/09 01:01:23;;;;;;;8.80;7.93;;;;;;;24.56;52.26;97497.94;5033701;28;20462;-70
2023/09/09 01:03:53;;;;;;;9.60;8.63;;;;;;;24.60;51.99;97503.63;5039428;28;20660;-69
2023/09/09 01:06:19;;;;;;;9.93;8.07;;;;;;;24.61;51.94;97500.72;4998722;28;20291;-69
2023/09/09 01:08:45;;;;;;;9.40;7.83;;;;;;;24.61;52.25;97500.72;5024555;28;20938;-70
2023/09/09 01:11:10;;;;;;;9.23;8.33;;;;;;;24.64;52.15;97502.09;5031895;28;20518;-70
2023/09/09 01:13:35;;;;;;;8.80;8.00;;;;;;;24.67;51.84;97499.78;5030381;28;20187;-69
2023/09/09 01:16:01;;;;;;;9.63;8.63;;;;;;;24.67;52.00;97499.78;5032144;28;20675;-70
2023/09/09 01:18:28;;;;;;;15.10;8.53;;;;;;;24.64;51.72;97505.59;5029371;28;20207;-69
2023/09/09 01:20:59;;;;;;;10.27;8.93;;;;;;;24.56;52.16;97502.47;5036392;28;20191;-69
2023/09/09 01:23:25;;;;;;;10.00;8.03;;;;;;;24.56;52.27;97507.84;5012688;28;20427;-69
2023/09/09 01:25:50;;;;;;;9.00;8.20;;;;;;;24.55;52.53;97512.38;5031435;28;20446;-69
2023/09/09 01:28:19;;;;;;;9.37;8.47;;;;;;;24.54;52.48;97516.13;5031489;28;20275;-69
2023/09/09 01:30:44;;;;;;;12.80;8.80;;;;;;;24.49;52.40;97507.94;5030786;28;20239;-69
2023/09/09 01:33:09;;;;;;;9.70;8.40;;;;;;;24.52;52.35;97507.50;5039403;28;20880;-68
2023/09/09 01:35:35;;;;;;;8.63;7.83;;;;;;;24.55;52.74;97507.03;5038074;28;20215;-70
2023/09/09 01:38:00;;;;;;;8.93;7.90;;;;;;;24.59;52.48;97504.69;5031377;28;20709;-71
2023/09/09 01:40:26;;;;;;;9.30;8.40;;;;;;;24.54;52.05;97511.56;5030781;28;20183;-70
2023/09/09 01:42:51;;;;;;;9.90;8.00;;;;;;;24.48;52.04;97514.34;5031678;28;20261;-71
2023/09/09 01:45:17;;;;;;;12.07;7.73;;;;;;;24.48;52.14;97512.50;5031244;28;20302;-70
2023/09/09 01:47:42;;;;;;;8.70;7.50;;;;;;;24.48;52.49;97517.03;5030651;28;20184;-70
2023/09/09 01:50:08;;;;;;;13.43;8.30;;;;;;;24.48;52.30;97519.72;5026786;28;20614;-69
2023/09/09 01:52:33;;;;;;;9.20;8.30;;;;;;;24.44;52.52;97513.22;5028447;28;20580;-69
2023/09/09 01:54:59;;;;;;;10.67;8.40;;;;;;;24.36;52.42;97514.38;5030310;28;20250;-69
2023/09/09 01:57:26;;;;;;;10.37;8.63;;;;;;;24.29;52.71;97508.31;5032185;28;20211;-70
2023/09/09 01:59:53;;;;;;;9.47;8.57;;;;;;;24.26;52.81;97504.25;5038775;28;20254;-70
2023/09/09 02:02:18;;;;;;;8.77;7.93;;;;;;;24.27;52.84;97508.56;5033678;28;20490;-68
2023/09/09 02:04:43;;;;;;;9.03;8.07;;;;;;;24.24;53.17;97509.03;5029765;28;20480;-69
2023/09/09 02:07:09;;;;;;;8.20;7.50;;;;;;;24.20;53.12;97506.00;5033333;28;20219;-70
2023/09/09 02:09:34;;;;;;;19.27;9.93;;;;;;;24.25;53.04;97507.19;5039971;28;20198;-69
2023/09/09 02:12:03;;;;;;;10.70;8.93;;;;;;;24.27;52.86;97505.06;5030514;28;20240;-69
2023/09/09 02:14:29;;;;;;;10.57;9.57;;;;;;;24.26;52.42;97503.44;5019727;28;20198;-68
2023/09/09 02:16:54;;;;;;;8.87;8.07;;;;;;;24.23;52.52;97508.22;5030874;28;20506;-69
2023/09/09 02:19:20;;;;;;;11.37;8.47;;;;;;;24.20;52.43;97499.81;5030547;28;20270;-68
2023/09/09 02:21:45;;;;;;;9.00;8.13;;;;;;;24.17;52.62;97505.66;5032388;28;20208;-69
2023/09/09 02:24:11;;;;;;;8.90;8.10;;;;;;;24.14;52.92;97500.75;5030499;28;20214;-70
2023/09/09 02:26:36;;;;;;;10.13;8.90;;;;;;;24.11;53.10;97499.38;5030221;28;20635;-69
2023/09/09 02:29:02;;;;;;;9.60;8.47;;;;;;;24.09;53.11;97496.13;5038900;28;20188;-69
2023/09/09 02:31:27;;;;;;;9.07;8.13;;;;;;;24.06;53.21;97499.25;5025650;28;20180;-70
2023/09/09 02:33:52;;;;;;;9.43;8.53;;;;;;;24.07;52.98;97495.53;5045477;28;20180;-69
2023/09/09 02:36:18;;;;;;;15.23;8.70;;;;;;;24.03;53.08;97492.50;5045687;28;20207;-69
2023/09/09 02:38:43;;;;;;;9.27;8.43;;;;;;;23.99;52.99;97491.31;5027408;28;20258;-69
2023/09/09 02:41:09;;;;;;;9.90;9.00;;;;;;;23.96;53.22;97499.81;5036598;28;20194;-69
2023/09/09 02:43:36;;;;;;;9.27;8.33;;;;;;;23.94;53.36;97496.56;5038665;28;20197;-70
2023/09/09 02:46:02;;;;;;;9.27;8.37;;;;;;;23.90;53.42;97495.38;5030058;28;20676;-69
2023/09/09 02:48:27;;;;;;;9.73;8.03;;;;;;;23.85;53.44;97490.72;5030270;28;20423;-69
2023/09/09 02:50:53;;;;;;;8.57;7.77;;;;;;;23.84;53.45;97488.25;5029508;28;20437;-69
2023/09/09 02:53:18;;;;;;;10.07;8.97;;;;;;;23.81;53.67;97489.53;5030432;28;20210;-69
2023/09/09 02:55:44;;;;;;;9.60;8.70;;;;;;;23.80;53.65;97493.25;5028400;28;20290;-69
2023/09/09 02:58:12;;;;;;;9.20;8.30;;;;;;;23.83;53.83;97495.47;5030596;28;20222;-69
2023/09/09 03:00:38;;;;;;;9.13;8.10;;;;;;;23.86;53.83;97494.19;5029099;28;20191;-69
2023/09/09 03:03:03;;;;;;;14.40;8.50;;;;;;;23.88;53.68;97495.59;5030273;28;20465;-68
2023/09/09 03:05:29;;;;;;;8.67;7.83;;;;;;;23.90;53.38;97488.16;5029541;28;20211;-69
2023/09/09 03:07:57;;;;;;;13.37;8.33;;;;;;;23.93;53.13;97492.25;5016860;28;20211;-69
2023/09/09 03:10:23;;;;;;;10.20;8.00;;;;;;;23.46;54.11;97503.66;5039998;28;20187;-69
2023/09/09 03:12:48;;;;;;;10.53;8.67;;;;;;;23.34;55.03;97492.91;5025372;28;20441;-69
2023/09/09 03:15:17;;;;;;;11.40;8.67;;;;;;;23.91;53.56;97491.66;5025888;28;20299;-69
2023/09/09 03:17:42;;;;;;;9.53;8.50;;;;;;;24.05;53.03;97498.44;5029583;28;20195;-69
2023/09/09 03:20:08;;;;;;;9.87;8.87;;;;;;;24.04;53.03;97496.81;5041421;28;20429;-70
2023/09/09 03:22:34;;;;;;;10.23;7.60;;;;;;;24.06;53.05;97494.72;5027534;28;20207;-69
2023/09/09 03:24:59;;;;;;;9.10;8.20;;;;;;;24.04;52.85;97496.81;5033629;28;20511;-70
2023/09/09 03:27:25;;;;;;;10.10;7.97;;;;;;;24.01;53.26;97491.91;5033998;28;20194;-68
2023/09/09 03:29:50;;;;;;;8.87;7.97;;;;;;;23.99;53.33;97488.66;5027942;28;20192;-69
2023/09/09 03:32:15;;;;;;;9.07;8.17;;;;;;;23.98;53.28;97492.38;5028387;28;20214;-69
2023/09/09 03:34:41;;;;;;;9.80;8.47;;;;;;;23.99;53.71;97487.84;5027628;28;20243;-69
2023/09/09 03:37:07;;;;;;;9.83;8.57;;;;;;;24.01;53.33;97486.56;5030481;28;20192;-69
2023/09/09 03:39:32;;;;;;;9.20;8.40;;;;;;;24.02;53.46;97488.19;5034654;28;20183;-69
2023/09/09 03:41:57;;;;;;;9.30;8.50;;;;;;;24.03;53.14;97487.16;5038658;28;20693;-69
2023/09/09 03:44:23;;;;;;;9.80;7.47;;;;;;;24.03;53.01;97484.47;5032840;28;20233;-68
2023/09/09 03:46:48;;;;;;;10.27;8.63;;;;;;;24.03;53.38;97495.19;5030151;28;20234;-69
2023/09/09 03:49:14;;;;;;;10.53;8.67;;;;;;;24.04;53.29;97486.09;5028159;28;20191;-69
2023/09/09 03:51:40;;;;;;;8.00;7.20;;;;;;;24.05;53.15;97487.75;5028141;28;20214;-68
2023/09/09 03:54:05;;;;;;;10.37;9.27;;;;;;;24.07;52.92;97490.97;5026063;28;20584;-69
2023/09/09 03:56:31;;;;;;;9.40;8.43;;;;;;;24.06;52.95;97494.72;5041083;28;20199;-69
2023/09/09 03:58:56;;;;;;;9.03;8.13;;;;;;;24.09;52.99;97493.44;5035806;28;21097;-68
2023/09/09 04:01:22;;;;;;;9.70;8.07;;;;;;;24.10;53.21;97495.06;5046015;28;20713;-68
2023/09/09 04:03:47;;;;;;;10.00;8.87;;;;;;;24.12;52.82;97494.81;5030500;28;20560;-68
2023/09/09 04:06:13;;;;;;;9.90;8.90;;;;;;;24.07;53.02;97496.31;5033026;28;20214;-68
2023/09/09 04:08:39;;;;;;;10.03;8.90;;;;;;;24.04;53.03;97495.97;5037902;28;20267;-67
2023/09/09 04:11:05;;;;;;;10.20;8.13;;;;;;;24.01;53.15;97491.91;5038016;28;20215;-69
2023/09/09 04:13:31;;;;;;;9.63;8.70;;;;;;;23.99;53.29;97494.00;5032248;28;20466;-69
2023/09/09 04:15:57;;;;;;;11.03;7.97;;;;;;;23.93;52.94;97494.91;5030591;28;20223;-69
2023/09/09 04:18:23;;;;;;;9.57;8.67;;;;;;;23.86;53.34;97496.88;5032542;28;20222;-69
2023/09/09 04:20:49;;;;;;;10.90;8.53;;;;;;;23.81;53.94;97494.09;5032747;28;20788;-69
2023/09/09 04:23:14;;;;;;;9.53;8.50;;;;;;;23.83;53.80;97490.13;5041040;28;20461;-70
2023/09/09 04:25:40;;;;;;;9.17;8.27;;;;;;;23.85;53.71;97500.59;5034186;28;20218;-69
2023/09/09 04:28:09;;;;;;;9.43;8.60;;;;;;;23.86;53.56;97495.03;5031521;28;20279;-68
2023/09/09 04:30:34;;;;;;;9.80;8.80;;;;;;;23.87;53.34;97493.16;5032229;28;20638;-69
2023/09/09 04:33:00;;;;;;;9.33;8.00;;;;;;;23.89;53.57;97496.41;5044335;28;20429;-69
2023/09/09 04:35:25;;;;;;;9.10;8.17;;;;;;;23.88;53.14;97494.78;5031708;28;20553;-69
2023/09/09 04:37:51;;;;;;;10.00;9.00;;;;;;;23.89;53.32;97505.25;5030318;28;20192;-69
2023/09/09 04:40:16;;;;;;;9.70;8.50;;;;;;;23.85;53.55;97497.91;5019230;28;20342;-68
2023/09/09 04:42:42;;;;;;;8.30;7.60;;;;;;;23.86;53.61;97499.53;5036375;28;20684;-68
2023/09/09 04:45:08;;;;;;;9.87;8.70;;;;;;;23.87;53.50;97502.00;5035684;28;20203;-69
2023/09/09 04:47:34;;;;;;;10.33;8.43;;;;;;;23.88;53.50;97500.94;5032392;28;20245;-69
2023/09/09 04:50:00;;;;;;;9.67;8.10;;;;;;;23.88;53.46;97503.63;5029786;28;20426;-68
2023/09/09 04:52:26;;;;;;;8.97;8.17;;;;;;;23.87;53.70;97499.34;5031795;28;20195;-69
2023/09/09 04:54:51;;;;;;;13.83;8.80;;;;;;;23.86;53.37;97502.22;5038734;28;20219;-69
2023/09/09 04:57:17;;;;;;;9.87;8.87;;;;;;;23.73;53.36;97505.94;5037998;28;20434;-70
2023/09/09 04:59:42;;;;;;;9.57;8.60;;;;;;;23.61;53.92;97503.22;5039653;28;20193;-70
2023/09/09 05:02:08;;;;;;;10.90;8.77;;;;;;;23.50;54.19;97504.00;5035135;28;20207;-69
2023/09/09 05:04:33;;;;;;;11.03;9.27;;;;;;;23.51;54.50;97511.00;5033023;28;20183;-70
2023/09/09 05:07:00;;;;;;;10.63;9.40;;;;;;;23.54;54.75;97514.03;5031241;28;20556;-69
2023/09/09 05:09:25;;;;;;;11.17;9.10;;;;;;;23.58;54.04;97514.38;5040199;28;20619;-70
2023/09/09 05:11:51;;;;;;;9.83;8.93;;;;;;;23.55;54.13;97509.50;5037888;28;20454;-70
2023/09/09 05:14:16;;;;;;;10.03;8.97;;;;;;;23.57;54.56;97518.09;5034174;28;20203;-69
2023/09/09 05:16:41;;;;;;;11.37;8.70;;;;;;;23.54;54.36;97526.59;5028528;28;20227;-69
2023/09/09 05:19:07;;;;;;;13.57;9.93;;;;;;;23.51;54.44;97524.38;5034735;28;20195;-69
2023/09/09 05:21:32;;;;;;;10.90;9.80;;;;;;;23.51;54.33;97525.16;5030724;28;20299;-69
2023/09/09 05:23:58;;;;;;;10.83;9.73;;;;;;;23.51;54.72;97524.38;5030331;28;20707;-69
2023/09/09 05:26:23;;;;;;;10.97;9.97;;;;;;;23.48;54.91;97525.66;5036500;28;20253;-69
2023/09/09 05:28:49;;;;;;;15.97;9.83;;;;;;;23.52;55.09;97523.34;5037167;28;20192;-69
2023/09/09 05:31:15;;;;;;;10.93;9.90;;;;;;;23.51;55.16;97529.72;5032099;28;20722;-69
2023/09/09 05:33:41;;;;;;;13.10;10.10;;;;;;;23.55;55.16;97522.88;5039579;28;20213;-68
2023/09/09 05:36:06;;;;;;;10.53;9.50;;;;;;;23.58;55.30;97530.44;5031110;28;20442;-69
2023/09/09 05:38:32;;;;;;;13.13;10.10;;;;;;;23.56;55.19;97521.84;5018970;28;20199;-69
2023/09/09 05:40:57;;;;;;;11.63;9.60;;;;;;;23.56;55.53;97533.34;5037939;28;20194;-68
2023/09/09 05:43:23;;;;;;;12.50;9.10;;;;;;;23.58;55.60;97541.13;5034544;28;20203;-69
2023/09/09 05:45:48;;;;;;;13.00;10.10;;;;;;;23.55;55.98;97534.38;5030861;28;20212;-68
2023/09/09 05:48:13;;;;;;;16.80;9.93;;;;;;;23.59;56.18;97532.06;5035632;28;20270;-69
2023/09/09 05:50:39;;;;;;;12.10;10.30;;;;;;;23.69;55.89;97544.88;5031089;28;20191;-69
2023/09/09 05:53:05;;;;;;;10.73;9.73;;;;;;;23.78;55.90;97538.97;5014700;28;20188;-69
2023/09/09 05:55:30;;;;;;;13.03;10.00;;;;;;;23.93;55.55;97543.09;5039148;28;20203;-69
2023/09/09 05:57:56;;;;;;;12.53;10.80;;;;;;;23.98;55.69;97543.22;5032830;28;20238;-69
2023/09/09 06:00:21;;;;;;;11.70;10.50;;;;;;;24.12;55.43;97541.16;5013683;28;20192;-69
2023/09/09 06:02:46;;;;;;;12.03;10.77;;;;;;;24.21;54.92;97545.13;5031245;28;20275;-68
2023/09/09 06:05:14;;;;;;;13.00;10.40;;;;;;;24.24;54.80;97541.16;5026449;28;20216;-69
2023/09/09 06:07:39;;;;;;;11.13;9.93;;;;;;;24.38;54.78;97552.47;5025910;28;20188;-68
2023/09/09 06:10:05;;;;;;;12.23;9.73;;;;;;;24.43;54.75;97549.09;5026535;28;20565;-69
2023/09/09 06:12:31;;;;;;;10.80;9.70;;;;;;;24.53;54.31;97546.63;5033793;28;20425;-69
2023/09/09 06:14:56;;;;;;;14.93;10.40;;;;;;;24.53;53.91;97552.78;5021377;28;20751;-69
2023/09/09 06:17:22;;;;;;;9.93;8.93;;;;;;;24.59;54.08;97556.38;5025953;28;20210;-69
2023/09/09 06:19:47;;;;;;;14.63;10.30;;;;;;;24.65;54.40;97560.81;5026063;28;20191;-69
2023/09/09 06:22:13;;;;;;;10.80;9.80;;;;;;;24.75;53.78;97556.75;5023967;28;20688;-69
2023/09/09 06:24:38;;;;;;;13.20;9.20;;;;;;;24.81;53.68;97553.16;5022760;28;20397;-68
2023/09/09 06:27:04;;;;;;;11.27;9.50;;;;;;;24.93;53.81;97550.44;5017950;28;20196;-69
2023/09/09 06:29:29;;;;;;;11.50;10.27;;;;;;;25.07;53.42;97559.03;5030780;28;20191;-69
2023/09/09 06:31:55;;;;;;;12.57;10.23;;;;;;;24.99;53.76;97555.66;5013661;28;20644;-68
2023/09/09 06:34:20;;;;;;;13.20;10.57;;;;;;;25.10;53.58;97561.22;5031138;28;20206;-69
2023/09/09 06:36:46;;;;;;;11.20;10.07;;;;;;;25.20;53.71;97561.44;5036458;28;20199;-70
2023/09/09 06:39:11;;;;;;;16.40;10.53;;;;;;;25.33;53.75;97570.25;5028686;28;20282;-72
2023/09/09 06:41:36;;;;;;;10.57;9.57;;;;;;;25.38;53.51;97560.44;5033867;28;20286;-71
2023/09/09 06:44:03;;;;;;;15.50;10.23;;;;;;;25.59;53.05;97561.63;5029858;28;20212;-71
2023/09/09 06:46:28;;;;;;;17.57;10.20;;;;;;;25.65;53.37;97562.53;5029471;28;20211;-71
2023/09/09 06:48:54;;;;;;;16.80;11.10;;;;;;;25.76;53.04;97563.53;5040204;28;20438;-70
2023/09/09 06:51:19;;;;;;;11.60;10.00;;;;;;;25.83;53.13;97560.72;5027225;28;20192;-71
2023/09/09 06:53:45;;;;;;;12.87;11.57;;;;;;;25.96;53.03;97567.66;5029243;28;20266;-71
2023/09/09 06:56:10;;;;;;;15.07;10.87;;;;;;;26.14;52.85;97564.75;5033409;28;20203;-71
2023/09/09 06:58:35;;;;;;;15.50;12.30;;;;;;;26.28;52.51;97569.78;5030750;28;20333;-69
2023/09/09 07:01:02;;;;;;;17.80;14.90;;;;;;;26.46;52.21;97577.59;5032922;28;20249;-71
2023/09/09 07:03:28;;;;;;;12.23;10.93;;;;;;;26.65;51.79;97575.41;5035663;28;20695;-70
2023/09/09 07:05:53;;;;;;;24.53;21.37;;;;;;;26.78;51.31;97574.28;5037004;28;20446;-70
2023/09/09 07:08:19;;;;;;;17.20;15.50;;;;;;;26.97;50.91;97573.97;5016027;28;20209;-71
2023/09/09 07:10:51;;;;;;;12.87;11.67;;;;;;;27.16;50.94;97579.84;5030136;28;20214;-72
2023/09/09 07:13:17;;;;;;;23.50;21.00;;;;;;;27.34;50.27;97578.75;5029301;28;20273;-71
2023/09/09 07:15:42;;;;;;;21.27;18.27;;;;;;;27.52;49.92;97574.09;5034867;28;20486;-72
2023/09/09 07:18:08;;;;;;;37.47;31.90;;;;;;;27.67;49.06;97582.31;5029222;28;20195;-70
2023/09/09 07:20:33;;;;;;;15.23;13.70;;;;;;;27.90;49.33;97580.38;5027868;28;20245;-71
2023/09/09 07:22:59;;;;;;;14.30;10.27;;;;;;;28.11;48.95;97577.88;5024780;28;20278;-71
2023/09/09 07:25:24;;;;;;;9.33;8.53;;;;;;;28.30;47.96;97572.91;5027841;28;20215;-72
2023/09/09 07:27:50;;;;;;;13.23;11.27;;;;;;;28.46;47.90;97574.63;5032448;28;20187;-72
2023/09/09 07:30:15;;;;;;;12.30;9.80;;;;;;;28.63;47.93;97574.47;5043315;28;20561;-73
2023/09/09 07:32:41;;;;;;;10.80;9.60;;;;;;;28.84;47.77;97573.78;5038342;28;20180;-72
2023/09/09 07:35:07;;;;;;;9.83;8.90;;;;;;;29.02;46.45;97575.22;5035298;28;20207;-70
2023/09/09 07:37:33;;;;;;;8.43;7.73;;;;;;;29.14;46.34;97578.50;5031411;28;20179;-73
2023/09/09 07:40:01;;;;;;;10.97;8.50;;;;;;;29.34;45.19;97571.59;5029497;28;20176;-72
2023/09/09 07:42:26;;;;;;;11.50;7.70;;;;;;;29.47;45.50;97581.91;5026919;28;20245;-73
2023/09/09 07:44:53;;;;;;;9.80;8.87;;;;;;;29.67;45.39;97577.59;5039229;28;20442;-72
2023/09/09 07:47:20;;;;;;;9.20;8.27;;;;;;;29.82;44.83;97574.94;5018936;28;20224;-72
2023/09/09 07:49:45;;;;;;;9.80;8.90;;;;;;;30.02;44.57;97578.72;5028879;28;20803;-72
2023/09/09 07:52:11;;;;;;;11.93;8.60;;;;;;;30.25;44.58;97573.84;5042258;28;20501;-72
2023/09/09 07:54:36;;;;;;;9.67;7.10;;;;;;;30.43;43.80;97576.00;5022674;28;20541;-73
2023/09/09 07:57:02;;;;;;;8.63;7.77;;;;;;;30.57;43.18;97578.19;5029056;28;20699;-71
2023/09/09 07:59:31;;;;;;;11.47;8.10;;;;;;;30.75;42.89;97585.69;5038040;28;20597;-73
2023/09/09 08:01:56;;;;;;;13.87;9.30;;;;;;;30.91;42.28;97585.66;5007712;28;20207;-71
2023/09/09 08:04:22;;;;;;;8.93;7.57;;;;;;;31.11;42.65;97595.59;5031607;28;20479;-72
2023/09/09 08:06:50;;;;;;;10.10;8.20;;;;;;;31.31;41.79;97586.59;5038996;28;20234;-71
2023/09/09 08:09:15;;;;;;;8.20;7.47;;;;;;;31.43;41.43;97583.56;5038893;28;20961;-73
2023/09/09 08:11:41;;;;;;;8.93;7.63;;;;;;;31.64;41.12;97581.53;4990697;28;20459;-72
2023/09/09 08:14:06;;;;;;;11.70;8.90;;;;;;;31.91;40.24;97590.31;5029976;28;20279;-72
2023/09/09 08:16:32;;;;;;;9.03;7.97;;;;;;;32.03;40.21;97588.06;5040785;28;20242;-72
2023/09/09 08:18:58;;;;;;;8.80;7.90;;;;;;;32.23;39.40;97597.09;5026550;28;20760;-72
2023/09/09 08:21:23;;;;;;;9.73;7.77;;;;;;;32.31;39.46;97596.53;5031245;28;20200;-72
2023/09/09 08:23:49;;;;;;;10.27;8.17;;;;;;;32.54;39.58;97591.44;5030332;28;20505;-72
2023/09/09 08:26:14;;;;;;;12.23;7.40;;;;;;;32.48;38.67;97587.97;5032146;28;20695;-72
2023/09/09 08:28:40;;;;;;;13.40;10.80;;;;;;;32.69;38.41;97587.75;5029460;28;20617;-71
2023/09/09 08:31:05;;;;;;;16.07;7.80;;;;;;;32.83;38.29;97593.34;5037089;28;20207;-73
2023/09/09 08:33:30;;;;;;;9.80;7.40;;;;;;;32.81;37.44;97596.31;5042508;28;20549;-72
2023/09/09 08:35:59;;;;;;;8.63;6.63;;;;;;;32.94;37.86;97594.84;5040948;28;20617;-71
2023/09/09 08:38:25;;;;;;;13.13;7.70;;;;;;;33.14;38.13;97595.66;5011668;28;20687;-71
2023/09/09 08:41:11;;;;;;;8.63;6.97;;;;;;;33.23;37.28;97591.19;5030905;28;20425;-72
2023/09/09 08:44:01;;;;;;;7.50;6.80;;;;;;;33.43;37.18;97586.66;5014899;28;20188;-74
2023/09/09 08:46:27;;;;;;;10.20;7.20;;;;;;;33.66;36.98;97593.09;5018108;28;20445;-72
2023/09/09 08:48:53;;;;;;;10.27;6.67;;;;;;;33.82;36.47;97596.41;5035100;28;20419;-72
2023/09/09 08:51:42;;;;;;;7.97;7.17;;;;;;;33.88;35.95;97594.44;5032000;28;20608;-72
2023/09/09 08:54:09;;;;;;;7.53;6.83;;;;;;;33.99;35.45;97595.91;5034942;28;20199;-71
2023/09/09 08:56:34;;;;;;;8.50;7.70;;;;;;;34.03;35.37;97593.38;5038114;28;20945;-71
2023/09/09 08:59:00;;;;;;;10.67;6.30;;;;;;;34.14;35.50;97594.81;5042749;28;20448;-72
2023/09/09 09:01:26;;;;;;;10.83;7.30;;;;;;;34.29;35.21;97599.19;5034372;28;20663;-71
2023/09/09 09:03:54;;;;;;;9.77;7.53;;;;;;;34.40;35.33;97597.97;5045565;28;20285;-73
2023/09/09 09:06:20;;;;;;;11.37;6.97;;;;;;;34.56;34.74;97595.75;5033144;28;20461;-73
2023/09/09 09:08:45;;;;;;;7.43;6.23;;;;;;;34.67;34.90;97599.06;5027444;28;20839;-72
2023/09/09 09:11:12;;;;;;;11.50;6.73;;;;;;;34.78;33.92;97594.25;5041099;28;20278;-72
2023/09/09 09:13:37;;;;;;;6.70;6.07;;;;;;;34.90;33.94;97597.28;5031818;28;20191;-73
2023/09/09 09:16:03;;;;;;;11.77;6.63;;;;;;;34.89;33.58;97597.59;5032194;28;20457;-71
2023/09/09 09:18:29;;;;;;;6.90;6.30;;;;;;;34.90;33.70;97596.50;5032046;28;20274;-72
2023/09/09 09:21:07;;;;;;;11.57;6.00;;;;;;;34.96;33.67;97597.22;5032256;28;20435;-73
2023/09/09 09:23:33;;;;;;;6.67;5.97;;;;;;;34.99;33.34;97597.41;5031158;28;20562;-73
2023/09/09 09:25:59;;;;;;;8.40;5.90;;;;;;;35.06;33.49;97595.09;5032092;28;20450;-73
2023/09/09 09:28:28;;;;;;;7.30;6.60;;;;;;;35.21;33.23;97593.16;5039626;28;20444;-71
2023/09/09 09:30:53;;;;;;;9.10;6.67;;;;;;;35.15;33.19;97595.19;5014098;28;20338;-73
2023/09/09 09:33:27;;;;;;;7.17;6.47;;;;;;;35.26;33.33;97594.97;5032044;28;20497;-71
2023/09/09 09:35:53;;;;;;;10.43;6.50;;;;;;;35.30;33.45;97590.53;5036135;28;20213;-72
2023/09/09 09:38:18;;;;;;;8.33;6.20;;;;;;;35.36;33.18;97592.84;5034368;28;20437;-72
2023/09/09 09:40:44;;;;;;;14.37;6.60;;;;;;;35.49;32.93;97579.50;5044983;28;20244;-73
2023/09/09 09:43:17;;;;;;;8.07;7.27;;;;;;;35.60;32.84;97578.16;5019838;28;20219;-71
2023/09/09 09:45:43;;;;;;;7.67;6.90;;;;;;;35.68;32.71;97585.59;5039334;28;20319;-72
2023/09/09 09:48:08;;;;;;;8.60;6.20;;;;;;;35.60;32.99;97578.16;5039826;28;20425;-74
2023/09/09 09:50:34;;;;;;;8.27;6.27;;;;;;;35.72;32.36;97583.09;5039402;28;20278;-72
2023/09/09 09:53:01;;;;;;;10.63;8.10;;;;;;;35.86;32.73;97577.56;5035615;28;20201;-72
2023/09/09 09:55:27;;;;;;;10.60;6.43;;;;;;;36.02;32.64;97579.94;5030916;28;20456;-72
2023/09/09 09:57:54;;;;;;;7.63;6.80;;;;;;;36.07;32.19;97585.25;5027203;28;20901;-72
2023/09/09 10:00:21;;;;;;;8.83;6.60;;;;;;;36.18;31.57;97577.63;5033793;28;21006;-73
2023/09/09 10:02:51;;;;;;;9.53;8.53;;;;;;;36.32;31.79;97578.38;5031445;28;20493;-72
2023/09/09 10:05:20;;;;;;;23.37;20.97;;;;;;;36.38;31.85;97584.50;5039646;28;20454;-72
2023/09/09 10:08:08;;;;;;;10.53;7.00;;;;;;;36.51;31.07;97580.06;5042759;28;20433;-73
2023/09/09 10:10:35;;;;;;;10.90;6.17;;;;;;;36.55;30.97;97581.84;5030894;28;20426;-73
2023/09/09 10:13:12;;;;;;;7.27;6.57;;;;;;;36.62;30.65;97577.88;5031114;28;20792;-73
2023/09/09 10:15:38;;;;;;;8.70;6.53;;;;;;;36.68;30.43;97579.34;5018882;28;20434;-71
2023/09/09 10:18:04;;;;;;;11.37;6.20;;;;;;;36.57;30.40;97578.84;5038285;28;20428;-72
2023/09/09 10:20:30;;;;;;;7.33;6.37;;;;;;;36.64;30.23;97583.84;5013138;28;21023;-71
2023/09/09 10:22:59;;;;;;;7.20;6.50;;;;;;;36.71;30.19;97576.81;5022478;28;20480;-71
2023/09/09 10:25:30;;;;;;;7.63;6.77;;;;;;;36.88;30.15;97576.06;5031485;28;20593;-72
2023/09/09 10:27:56;;;;;;;9.30;6.33;;;;;;;36.99;29.45;97570.31;5031369;28;20433;-71
2023/09/09 10:30:23;;;;;;;9.20;7.73;;;;;;;37.10;29.49;97579.81;5039744;28;20438;-71
2023/09/09 10:32:48;;;;;;;6.53;5.83;;;;;;;37.26;29.43;97571.97;5028663;28;20419;-72
2023/09/09 10:35:14;;;;;;;7.93;5.90;;;;;;;37.33;29.00;97576.97;5031655;28;20519;-72
2023/09/09 10:37:41;;;;;;;13.57;5.87;;;;;;;37.28;29.45;97580.66;5042488;28;20222;-71
2023/09/09 10:40:07;;;;;;;6.67;5.60;;;;;;;37.25;28.79;97569.56;5030504;28;20213;-71
2023/09/09 10:42:37;;;;;;;12.13;7.33;;;;;;;37.31;28.73;97568.28;5019075;28;21024;-72
2023/09/09 10:45:28;;;;;;;7.27;5.40;;;;;;;37.34;28.75;97571.19;5021418;28;20508;-72
2023/09/09 10:48:07;;;;;;;9.40;5.17;;;;;;;37.30;28.35;97567.50;5031178;28;20929;-71
2023/09/09 10:50:52;;;;;;;8.70;5.80;;;;;;;37.39;28.33;97564.78;5031246;28;21000;-72
2023/09/09 10:53:30;;;;;;;12.20;5.67;;;;;;;37.46;27.95;97565.13;5033877;28;20791;-72
2023/09/09 10:55:58;;;;;;;10.93;5.43;;;;;;;37.62;28.30;97572.84;5018514;28;20819;-72
2023/09/09 10:58:35;;;;;;;24.53;6.97;;;;;;;37.61;28.25;97573.97;5029826;28;20835;-71
2023/09/09 11:01:01;;;;;;;10.30;5.70;;;;;;;37.75;28.60;97571.88;5012871;28;20797;-71
2023/09/09 11:03:46;;;;;;;8.63;5.90;;;;;;;37.54;27.80;97577.19;5020519;28;20473;-72
2023/09/09 11:06:25;;;;;;;9.20;5.50;;;;;;;37.58;27.88;97577.34;5030311;28;20211;-71
2023/09/09 11:08:54;;;;;;;8.67;5.30;;;;;;;37.79;28.01;97572.03;5034886;28;20429;-71
2023/09/09 11:11:43;;;;;;;7.60;5.60;;;;;;;37.79;28.02;97569.28;5036128;28;20426;-71
2023/09/09 11:14:10;;;;;;;12.80;7.43;;;;;;;37.79;28.28;97566.56;5030341;28;20426;-72
2023/09/09 11:16:40;;;;;;;9.17;6.10;;;;;;;37.99;27.22;97576.06;5040131;28;20476;-72
2023/09/09 11:19:07;;;;;;;11.17;7.43;;;;;;;37.85;27.56;97572.66;5038344;28;20827;-71
2023/09/09 11:21:34;;;;;;;6.33;5.57;;;;;;;37.75;27.76;97565.59;5035252;28;20426;-72
2023/09/09 11:24:02;;;;;;;9.40;5.37;;;;;;;37.74;27.79;97562.06;5030682;28;20453;-72